createdAt,value
2018-08-22T00:04:31.673Z,49.20
2018-08-22T00:09:35.641Z,50.20
2018-08-22T00:14:39.618Z,51.00
2018-08-22T00:19:44.478Z,51.20
2018-08-22T00:24:46.756Z,51.80
2018-08-22T00:29:48.886Z,52.40
2018-08-22T00:34:51.075Z,52.40
2018-08-22T00:39:53.212Z,53.10
2018-08-22T00:44:55.773Z,53.00
2018-08-22T00:50:00.789Z,53.10
2018-08-22T00:55:04.685Z,53.80
2018-08-22T01:00:06.829Z,55.10
2018-08-22T01:05:11.699Z,54.90
2018-08-22T01:10:14.342Z,56.30
2018-08-22T01:15:17.732Z,55.60
2018-08-22T01:20:23.239Z,55.80
2018-08-22T01:25:25.465Z,56.10
2018-08-22T01:30:28.537Z,55.70
2018-08-22T01:35:31.554Z,57.00
2018-08-22T01:40:33.701Z,57.00
2018-08-22T01:45:35.861Z,57.80
2018-08-22T01:50:41.337Z,58.50
2018-08-22T01:55:43.501Z,58.60
2018-08-22T02:00:48.355Z,58.70
2018-08-22T02:05:50.736Z,58.00
2018-08-22T02:10:52.902Z,58.90
2018-08-22T02:15:56.898Z,58.60
2018-08-22T02:20:59.437Z,59.30
2018-08-22T02:26:02.890Z,59.40
2018-08-22T02:31:06.475Z,58.80
2018-08-22T02:36:10.308Z,59.60
2018-08-22T02:41:12.742Z,61.00
2018-08-22T02:46:16.193Z,59.10
2018-08-22T02:51:18.326Z,61.30
2018-08-22T02:56:23.698Z,63.60
2018-08-22T03:01:26.330Z,62.80
2018-08-22T03:06:30.749Z,59.70
2018-08-22T03:11:32.906Z,62.20
2018-08-22T03:16:35.054Z,60.60
2018-08-22T03:21:37.205Z,60.40
2018-08-22T03:26:41.345Z,59.90
2018-08-22T03:31:43.506Z,60.70
2018-08-22T03:36:48.066Z,61.20
2018-08-22T03:41:51.767Z,60.70
2018-08-22T03:46:53.930Z,60.80
2018-08-22T03:52:00.846Z,61.60
2018-08-22T03:57:03.230Z,61.00
2018-08-22T04:02:05.941Z,61.30
2018-08-22T04:07:08.112Z,61.50
2018-08-22T04:12:13.330Z,62.40
2018-08-22T04:17:16.691Z,62.20
2018-08-22T04:22:22.929Z,61.90
2018-08-22T04:27:25.421Z,61.70
2018-08-22T04:32:28.053Z,61.80
2018-08-22T04:37:31.436Z,61.40
2018-08-22T04:42:36.783Z,67.10
2018-08-22T04:47:39.100Z,68.20
2018-08-22T04:52:41.349Z,70.40
2018-08-22T04:57:43.496Z,70.60
2018-08-22T05:02:45.862Z,71.60
2018-08-22T05:07:48.013Z,71.40
2018-08-22T05:12:50.155Z,72.80
2018-08-22T05:17:52.613Z,74.30
2018-08-22T05:22:56.786Z,73.70
2018-08-22T05:27:59.882Z,72.90
2018-08-22T05:33:02.202Z,70.60
2018-08-22T05:38:04.728Z,69.00
2018-08-22T05:43:07.906Z,68.40
2018-08-22T05:48:10.057Z,67.20
2018-08-22T05:53:12.252Z,66.10
2018-08-22T05:58:14.910Z,65.10
2018-08-22T06:03:17.749Z,64.20
2018-08-22T06:08:20.970Z,62.60
2018-08-22T06:13:24.694Z,61.30
2018-08-22T06:18:27.983Z,61.10
2018-08-22T06:23:30.998Z,59.50
2018-08-22T06:28:34.502Z,59.20
2018-08-22T06:33:37.667Z,58.60
2018-08-22T06:38:40.168Z,57.70
2018-08-22T06:43:42.406Z,56.60
2018-08-22T06:48:45.595Z,56.10
2018-08-22T06:53:48.829Z,54.70
2018-08-22T06:58:51.644Z,54.30
2018-08-22T07:03:53.741Z,53.00
2018-08-22T07:08:56.415Z,51.30
2018-08-22T07:13:59.036Z,49.50
2018-08-22T07:19:01.348Z,49.60
2018-08-22T07:24:03.536Z,49.30
2018-08-22T07:29:05.709Z,49.20
2018-08-22T07:34:07.856Z,48.20
2018-08-22T07:39:11.876Z,47.20
2018-08-22T07:44:14.331Z,46.00
2018-08-22T07:49:16.631Z,45.40
2018-08-22T07:54:19.000Z,45.00
2018-08-22T07:59:21.260Z,43.90
2018-08-22T08:04:23.411Z,44.10
2018-08-22T08:09:25.738Z,42.20
2018-08-22T08:14:28.002Z,42.70
2018-08-22T08:19:30.166Z,42.30
2018-08-22T08:24:32.338Z,38.60
2018-08-22T08:29:34.482Z,39.60
2018-08-22T08:34:36.638Z,39.40
2018-08-22T08:39:38.954Z,39.60
2018-08-22T08:44:41.252Z,38.20
2018-08-22T08:49:43.649Z,36.90
2018-08-22T08:54:45.889Z,36.80
2018-08-22T08:59:49.091Z,36.30
2018-08-22T09:04:51.245Z,35.80
2018-08-22T09:09:53.406Z,36.00
2018-08-22T09:19:57.771Z,36.20
2018-08-22T09:24:59.926Z,35.30
2018-08-22T09:30:02.192Z,34.30
2018-08-22T09:35:04.341Z,34.70
2018-08-22T09:40:06.511Z,33.10
2018-08-22T09:45:08.769Z,33.10
2018-08-22T09:50:11.123Z,34.90
2018-08-22T09:55:13.270Z,34.30
2018-08-22T10:00:21.108Z,33.90
2018-08-22T10:05:23.310Z,33.10
2018-08-22T10:10:25.454Z,32.10
2018-08-22T10:15:27.585Z,32.50
2018-08-22T10:20:29.837Z,33.00
2018-08-22T10:25:32.066Z,32.20
2018-08-22T10:30:34.225Z,32.60
2018-08-22T10:35:36.398Z,33.70
2018-08-22T10:40:38.555Z,33.00
2018-08-22T10:45:40.714Z,32.40
2018-08-22T10:50:42.908Z,31.60
2018-08-22T10:55:45.669Z,31.90
2018-08-22T11:00:47.834Z,32.10
2018-08-22T11:05:50.154Z,32.60
2018-08-22T11:10:52.348Z,31.60
2018-08-22T11:15:54.595Z,31.80
2018-08-22T11:21:08.310Z,30.60
2018-08-22T11:26:22.018Z,31.70
2018-08-22T11:31:35.745Z,31.50
2018-08-22T11:36:37.091Z,31.80
2018-08-22T11:41:39.238Z,31.10
2018-08-22T11:46:41.415Z,31.60
2018-08-22T11:51:43.530Z,30.20
2018-08-22T11:56:45.698Z,32.20
2018-08-22T12:01:48.287Z,30.60
2018-08-22T12:06:50.845Z,31.70
2018-08-22T12:11:53.060Z,30.70
2018-08-22T12:16:55.303Z,31.40
2018-08-22T12:21:57.533Z,30.80
2018-08-22T12:26:59.721Z,30.50
2018-08-22T12:32:01.884Z,30.60
2018-08-22T12:37:04.525Z,29.90
2018-08-22T12:42:06.693Z,30.10
2018-08-22T12:47:08.866Z,29.70
2018-08-22T12:52:11.085Z,30.30
2018-08-22T12:57:13.484Z,28.80
2018-08-22T13:02:15.587Z,29.90
2018-08-22T13:07:17.749Z,29.50
2018-08-22T13:12:19.897Z,29.50
2018-08-22T13:17:22.137Z,29.30
2018-08-22T13:22:24.281Z,28.90
2018-08-22T13:27:26.421Z,30.00
2018-08-22T13:32:29.205Z,29.50
2018-08-22T13:37:31.349Z,29.00
2018-08-22T13:42:34.269Z,28.10
2018-08-22T13:47:36.417Z,28.20
2018-08-22T13:52:38.566Z,28.00
2018-08-22T13:57:40.857Z,26.40
2018-08-22T14:02:43.061Z,24.80
2018-08-22T14:07:45.341Z,26.30
2018-08-22T14:12:47.652Z,27.20
2018-08-22T14:17:49.962Z,27.60
2018-08-22T14:22:52.318Z,24.80
2018-08-22T14:27:54.690Z,27.00
2018-08-22T14:32:56.857Z,26.10
2018-08-22T14:37:59.133Z,25.90
2018-08-22T14:43:01.305Z,26.80
2018-08-22T14:48:03.626Z,27.20
2018-08-22T14:53:05.884Z,27.20
2018-08-22T14:58:08.116Z,27.00
2018-08-22T15:03:10.553Z,27.90
2018-08-22T15:08:12.532Z,27.30
2018-08-22T15:13:14.719Z,26.90
2018-08-22T15:18:16.916Z,27.60
2018-08-22T15:23:19.127Z,27.00
2018-08-22T15:28:21.307Z,27.00
2018-08-22T15:33:23.447Z,27.10
2018-08-22T15:38:25.652Z,27.40
2018-08-22T15:43:27.817Z,27.20
2018-08-22T15:48:29.970Z,27.90
2018-08-22T15:53:32.221Z,27.60
2018-08-22T15:58:34.394Z,27.70
2018-08-22T16:03:36.545Z,27.90
2018-08-22T16:08:38.693Z,27.50
2018-08-22T16:13:40.851Z,28.60
2018-08-22T16:18:43.006Z,28.20
2018-08-22T16:23:45.793Z,27.20
2018-08-22T16:28:56.269Z,29.80
2018-08-22T16:33:58.406Z,27.80
2018-08-22T16:39:00.921Z,29.00
2018-08-22T16:49:07.513Z,28.30
2018-08-22T16:54:09.933Z,27.80
2018-08-22T16:59:12.961Z,28.60
2018-08-22T17:04:15.113Z,28.40
2018-08-22T17:09:17.341Z,29.00
2018-08-22T17:14:19.470Z,29.30
2018-08-22T17:19:21.613Z,29.40
2018-08-22T17:24:23.828Z,29.10
2018-08-22T17:29:25.994Z,29.80
2018-08-22T17:34:28.134Z,28.70
2018-08-22T17:39:31.553Z,28.50
2018-08-22T17:44:33.706Z,28.60
2018-08-22T17:49:35.848Z,28.10
2018-08-22T17:54:37.990Z,28.20
2018-08-22T17:59:41.124Z,30.30
2018-08-22T18:04:51.463Z,32.00
2018-08-22T18:09:53.705Z,32.90
2018-08-22T18:14:56.945Z,34.00
2018-08-22T18:19:59.485Z,34.40
2018-08-22T18:25:01.654Z,34.50
2018-08-22T18:30:03.869Z,35.20
2018-08-22T18:35:08.923Z,36.10
2018-08-22T18:40:23.802Z,36.20
2018-08-22T18:45:26.492Z,36.50
2018-08-22T18:50:28.703Z,36.80
2018-08-22T18:55:32.301Z,37.50
2018-08-22T19:00:35.891Z,37.90
2018-08-22T19:05:38.101Z,37.70
2018-08-22T19:10:41.625Z,37.80
2018-08-22T19:15:49.237Z,38.20
2018-08-22T19:20:53.573Z,38.50
2018-08-22T19:25:56.375Z,38.80
2018-08-22T19:30:58.608Z,38.80
2018-08-22T19:36:00.869Z,38.80
2018-08-22T19:41:18.898Z,38.50
2018-08-22T19:46:21.489Z,38.70
2018-08-22T19:51:23.648Z,38.80
2018-08-22T19:56:26.634Z,39.00
2018-08-22T20:01:30.308Z,38.90
2018-08-22T20:06:32.542Z,39.10
2018-08-22T20:11:34.789Z,39.40
2018-08-22T20:16:37.110Z,39.70
2018-08-22T20:21:40.958Z,39.90
2018-08-22T20:26:48.589Z,40.00
2018-08-22T20:31:50.737Z,39.70
2018-08-22T20:36:52.941Z,39.90
2018-08-22T20:42:01.579Z,40.10
2018-08-22T20:47:03.712Z,42.40
2018-08-22T20:52:05.850Z,43.40
2018-08-22T20:57:10.534Z,42.90
2018-08-22T21:02:12.749Z,42.90
2018-08-22T21:07:25.265Z,44.60
2018-08-22T21:12:27.460Z,45.50
2018-08-22T21:17:29.605Z,45.70
2018-08-22T21:22:31.987Z,46.10
2018-08-22T21:27:34.334Z,46.00
2018-08-22T21:32:36.631Z,46.00
2018-08-22T21:37:39.282Z,46.20
2018-08-22T21:42:43.024Z,46.00
2018-08-22T21:47:45.233Z,47.50
2018-08-22T21:52:52.721Z,46.40
2018-08-22T21:57:55.894Z,47.60
2018-08-22T22:02:58.898Z,48.60
2018-08-22T22:08:02.578Z,47.70
2018-08-22T22:13:05.533Z,48.00
2018-08-22T22:18:07.930Z,48.90
2018-08-22T22:23:10.081Z,49.60
2018-08-22T22:28:12.499Z,48.30
2018-08-22T22:33:14.757Z,48.30
2018-08-22T22:38:16.941Z,48.50
2018-08-22T22:43:19.106Z,48.40
2018-08-22T22:48:34.238Z,48.20
2018-08-22T22:53:36.650Z,48.60
2018-08-22T22:58:38.850Z,49.10
2018-08-22T23:03:41.317Z,49.20
2018-08-22T23:08:43.925Z,48.90
2018-08-22T23:13:46.145Z,49.30
2018-08-22T23:18:49.596Z,49.20
2018-08-22T23:23:52.497Z,50.30
2018-08-22T23:28:54.659Z,50.30
2018-08-22T23:33:57.410Z,50.70
2018-08-22T23:38:59.597Z,51.30
2018-08-22T23:44:01.763Z,51.00
2018-08-22T23:49:03.928Z,51.20
2018-08-22T23:54:06.049Z,51.00
2018-08-22T23:59:08.196Z,52.40
